Expeditions — WDB6455 — position and weather

sailwx.info

Track history (hours):
 
Tides and Currents Weather Stations Pressure Air Temp Water Temp Dewpoint Dewpoint Depression Visibility Wind Speed Wind Dir Waves Ship Positions

Expeditions

Owner: Expeditions NW, Inc., Port Angeles, WA. More information available from US FCC via Universal Licensing System and Coast Guard Vessel Documentation Center.

Last reported at 2017-Nov-03 08:33 UTC. Time now 2017-Dec-18 22:39 UTC.
Position N 32°46' W 117°19'.
Warning: this ship's position is 45 days out of date.

Length 30 m; draft 2 m.

MMSI: 366053000.

Date/timePositionNaut miles runAvg speedWind from/ knotsBaromVisibWave heightAir tempDewpointWater temp
2017-Nov-03 08:33N 32°46' W 117°19'312.3
2017-Nov-03 08:21N 32°49' W 117°20'412.2
2017-Nov-03 08:00N 32°53' W 117°20'612.2
2017-Nov-03 07:30N 32°59' W 117°21'612.4
2017-Nov-03 07:00N 33°05' W 117°23'612.6
2017-Nov-03 06:30N 33°11' W 117°24'1 1.2
2017-Nov-03 06:00N 33°12' W 117°24'611.6
2017-Nov-03 05:30N 33°11' W 117°31'510.3
2017-Nov-03 05:00N 33°11' W 117°38'2 4.5
2017-Nov-03 04:30N 33°11' W 117°40'3 5.1
2017-Nov-03 04:00N 33°12' W 117°37'1 1.3
2017-Nov-03 03:30N 33°11' W 117°38'3 5.5
2017-Nov-03 03:00N 33°11' W 117°34'3 5.5
2017-Nov-03 02:30N 33°11' W 117°31'2 4.9
2017-Nov-03 02:00N 33°11' W 117°34'2 4.8
2017-Nov-03 01:30N 33°11' W 117°31'3 5.3
2017-Nov-03 01:00N 33°12' W 117°28'3 5.2
2017-Nov-03 00:30N 33°12' W 117°25'1 2.2
2017-Nov-02 23:55N 33°13' W 117°24'0 0.1
2017-Nov-02 23:29N 33°13' W 117°24'2 3.4
2017-Nov-02 23:00N 33°11' W 117°25'0 0.4
2017-Nov-02 22:30N 33°12' W 117°25'0 0.2
2017-Nov-02 22:00N 33°12' W 117°25'1 1.5
2017-Nov-02 21:30N 33°12' W 117°24'1 2.0
2017-Nov-02 21:00N 33°11' W 117°24'4 8.8
2017-Nov-02 20:30N 33°07' W 117°23'612.2
2017-Nov-02 20:00N 33°01' W 117°22'612.3
2017-Nov-02 19:30N 32°55' W 117°20'21 0.5
2017-Nov-01 02:01N 33°14' W 117°32'2 4.5
2017-Nov-01 01:30N 33°16' W 117°33'3 5.4
2017-Nov-01 01:00N 33°13' W 117°32'1 2.0
2017-Nov-01 00:31N 33°14' W 117°32'1 1.3
2017-Nov-01 00:01N 33°15' W 117°32'2 4.3
2017-Oct-31 23:31N 33°13' W 117°31'2 4.1
2017-Oct-31 23:01N 33°15' W 117°32'0 0.9
2017-Oct-31 22:30N 33°15' W 117°32'4 8.3
2017-Oct-31 22:00N 33°12' W 117°28'3 6.6
2017-Oct-31 21:31N 33°12' W 117°24'0 0.2
2017-Oct-31 21:01N 33°12' W 117°24'612.6
2017-Oct-31 20:31N 33°06' W 117°24'612.5
2017-Oct-31 20:00N 32°60' W 117°23'612.4
2017-Oct-31 19:31N 32°54' W 117°21'  
Track history (hours):
 
Tides and Currents Weather Stations Pressure Air Temp Water Temp Dewpoint Dewpoint Depression Visibility Wind Speed Wind Dir Waves Ship Positions

Expeditions

Owner: Expeditions NW, Inc., Port Angeles, WA. More information available from US FCC via Universal Licensing System and Coast Guard Vessel Documentation Center.

Last reported at 2017-Nov-03 08:33 UTC. Time now 2017-Dec-18 22:39 UTC.
Position N 32°46' W 117°19'.
Warning: this ship's position is 45 days out of date.

Length 30 m; draft 2 m.

MMSI: 366053000.

Date/timePositionNaut miles runAvg speedWind from/ knotsBaromVisibWave heightAir tempDewpointWater temp
2017-Nov-03 08:33N 32°46' W 117°19'312.3
2017-Nov-03 08:21N 32°49' W 117°20'412.2
2017-Nov-03 08:00N 32°53' W 117°20'612.2
2017-Nov-03 07:30N 32°59' W 117°21'612.4
2017-Nov-03 07:00N 33°05' W 117°23'612.6
2017-Nov-03 06:30N 33°11' W 117°24'1 1.2
2017-Nov-03 06:00N 33°12' W 117°24'611.6
2017-Nov-03 05:30N 33°11' W 117°31'510.3
2017-Nov-03 05:00N 33°11' W 117°38'2 4.5
2017-Nov-03 04:30N 33°11' W 117°40'3 5.1
2017-Nov-03 04:00N 33°12' W 117°37'1 1.3
2017-Nov-03 03:30N 33°11' W 117°38'3 5.5
2017-Nov-03 03:00N 33°11' W 117°34'3 5.5
2017-Nov-03 02:30N 33°11' W 117°31'2 4.9
2017-Nov-03 02:00N 33°11' W 117°34'2 4.8
2017-Nov-03 01:30N 33°11' W 117°31'3 5.3
2017-Nov-03 01:00N 33°12' W 117°28'3 5.2
2017-Nov-03 00:30N 33°12' W 117°25'1 2.2
2017-Nov-02 23:55N 33°13' W 117°24'0 0.1
2017-Nov-02 23:29N 33°13' W 117°24'2 3.4
2017-Nov-02 23:00N 33°11' W 117°25'0 0.4
2017-Nov-02 22:30N 33°12' W 117°25'0 0.2
2017-Nov-02 22:00N 33°12' W 117°25'1 1.5
2017-Nov-02 21:30N 33°12' W 117°24'1 2.0
2017-Nov-02 21:00N 33°11' W 117°24'4 8.8
2017-Nov-02 20:30N 33°07' W 117°23'612.2
2017-Nov-02 20:00N 33°01' W 117°22'612.3
2017-Nov-02 19:30N 32°55' W 117°20'21 0.5
2017-Nov-01 02:01N 33°14' W 117°32'2 4.5
2017-Nov-01 01:30N 33°16' W 117°33'3 5.4
2017-Nov-01 01:00N 33°13' W 117°32'1 2.0
2017-Nov-01 00:31N 33°14' W 117°32'1 1.3
2017-Nov-01 00:01N 33°15' W 117°32'2 4.3
2017-Oct-31 23:31N 33°13' W 117°31'2 4.1
2017-Oct-31 23:01N 33°15' W 117°32'0 0.9
2017-Oct-31 22:30N 33°15' W 117°32'4 8.3
2017-Oct-31 22:00N 33°12' W 117°28'3 6.6
2017-Oct-31 21:31N 33°12' W 117°24'0 0.2
2017-Oct-31 21:01N 33°12' W 117°24'612.6
2017-Oct-31 20:31N 33°06' W 117°24'612.5
2017-Oct-31 20:00N 32°60' W 117°23'612.4
2017-Oct-31 19:31N 32°54' W 117°21'  

Dump ship's entire track history